Time;durP1;ratioP1;P1;durP2;ratioP2;P2;SDS_P1;SDS_P2;PMS_P1;PMS_P2;Temp;Humidity;BMP_temperature;BMP_pressure;BME280_temperature;BME280_humidity;BME280_pressure;Samples;Min_cycle;Max_cycle;Signal;HPM_P1;HPM_P2
2023/01/01 00:03:17;;;;;;;;;;;;;;;;;;;;;
2023/01/01 00:14:51;;;;;;;113.80;71.60;;;;;;;11.19;61.28;99350.11;234623;1195;139242;-73
2023/01/01 00:20:01;;;;;;;110.70;71.40;;;;;;;10.98;61.98;99354.16;234807;1194;139660;-73
2023/01/01 00:26:08;;;;;;;96.30;61.80;;;;;;;10.80;62.71;99363.55;234693;1196;139779;-67
2023/01/01 00:31:52;;;;;;;;;;;;;;;;;;;;;
2023/01/01 00:38:18;;;;;;;65.20;38.40;;;;;;;10.54;63.62;99363.46;234614;1195;140125;-67
2023/01/01 00:58:07;;;;;;;50.70;31.90;;;;;;;10.29;64.65;99372.09;234289;1195;140045;-77
2023/01/01 01:10:24;;;;;;;;;;;;;;;;;;;;;
2023/01/01 01:16:55;;;;;;;;;;;;;;;;;;;;;
2023/01/01 01:23:50;;;;;;;;;;;;;;;;;;;;;
2023/01/01 01:30:08;;;;;;;30.70;19.70;;;;;;;9.76;65.38;99361.52;234669;1194;140214;-67
2023/01/01 01:36:42;;;;;;;36.60;20.20;;;;;;;9.64;65.98;99365.14;234234;1196;140120;-70
2023/01/01 01:42:56;;;;;;;29.50;16.20;;;;;;;9.53;66.15;99367.86;234578;1195;139347;-77
2023/01/01 01:49:42;;;;;;;;;;;;;;;;;;;;;
2023/01/01 01:56:13;;;;;;;27.20;17.30;;;;;;;9.53;66.45;99354.38;234170;1198;139148;-69
2023/01/01 02:03:11;;;;;;;29.30;17.70;;;;;;;9.48;66.13;99354.50;234545;1196;139175;-75
2023/01/01 02:08:27;;;;;;;36.70;18.20;;;;;;;9.43;66.63;99359.19;234613;1194;139275;-73
2023/01/01 02:15:27;;;;;;;;;;;;;;;;;;;;;
2023/01/01 02:21:05;;;;;;;26.70;16.50;;;;;;;9.38;66.01;99356.43;234653;1195;140019;-76
2023/01/01 02:26:43;;;;;;;33.90;21.40;;;;;;;9.32;65.98;99353.90;234583;1194;139325;-78
2023/01/01 02:33:06;;;;;;;;;;;;;;;;;;;;;
2023/01/01 02:45:20;;;;;;;27.00;17.10;;;;;;;9.07;66.36;99341.19;234412;1195;139029;-71
2023/01/01 02:50:34;;;;;;;29.20;17.30;;;;;;;9.04;66.78;99335.67;234456;1195;140264;-75
2023/01/01 02:57:11;;;;;;;25.70;16.10;;;;;;;9.00;66.79;99330.74;234898;1195;139319;-70
2023/01/01 03:03:27;;;;;;;23.90;15.30;;;;;;;8.89;67.38;99317.55;234540;1196;140662;-69
2023/01/01 03:10:18;;;;;;;;;;;;;;;;;;;;;
2023/01/01 03:16:44;;;;;;;;;;;;;;;;;;;;;
2023/01/01 03:22:51;;;;;;;27.70;16.40;;;;;;;8.89;67.09;99319.47;234474;1194;143580;-69
2023/01/01 03:29:00;;;;;;;27.80;17.70;;;;;;;8.84;66.97;99322.77;234636;1195;139039;-69
2023/01/01 03:42:08;;;;;;;21.60;12.70;;;;;;;8.88;67.76;99329.27;234623;1196;139257;-67
2023/01/01 03:55:12;;;;;;;26.20;16.00;;;;;;;9.72;66.89;99333.91;234585;1195;139319;-73
2023/01/01 04:01:03;;;;;;;16.30;10.40;;;;;;;9.85;66.08;99324.36;234809;1195;140144;-68
2023/01/01 04:07:15;;;;;;;;;;;;;;;;;;;;;
2023/01/01 04:12:39;;;;;;;8.70;5.80;;;;;;;10.69;65.41;99326.37;234792;1195;138900;-69
2023/01/01 04:18:06;;;;;;;8.20;5.50;;;;;;;11.14;64.47;99329.23;234784;1195;138721;-75
2023/01/01 04:37:26;;;;;;;10.30;5.70;;;;;;;12.46;60.27;99332.20;234490;1194;138751;-71
2023/01/01 04:42:45;;;;;;;10.20;6.00;;;;;;;12.69;59.50;99330.55;234719;1195;139306;-71
2023/01/01 04:48:39;;;;;;;;;;;;;;;;;;;;;
2023/01/01 04:54:38;;;;;;;;;;;;;;;;;;;;;
2023/01/01 05:00:17;;;;;;;;;;;;;;;;;;;;;
2023/01/01 05:06:07;;;;;;;9.50;5.70;;;;;;;13.09;57.15;99329.31;234621;1193;139146;-67
2023/01/01 05:12:01;;;;;;;9.80;6.80;;;;;;;13.16;56.71;99342.54;234677;1194;139340;-73
2023/01/01 05:17:07;;;;;;;23.40;16.00;;;;;;;13.22;56.75;99340.35;234686;1194;139381;-67
2023/01/01 05:22:59;;;;;;;;;;;;;;;;;;;;;
2023/01/01 05:29:03;;;;;;;13.50;7.50;;;;;;;13.31;56.30;99347.96;234708;1193;139420;-73
2023/01/01 05:35:00;;;;;;;;;;;;;;;;;;;;;
2023/01/01 05:41:00;;;;;;;9.40;6.80;;;;;;;13.34;55.77;99351.13;234684;1195;139465;-76
2023/01/01 05:47:09;;;;;;;10.60;6.50;;;;;;;13.38;55.45;99349.63;234708;1194;139525;-73
2023/01/01 05:52:35;;;;;;;;;;;;;;;13.41;55.35;99337.50;234538;1194;139125;-68
2023/01/01 05:57:48;;;;;;;10.20;6.70;;;;;;;13.43;55.35;99346.95;234764;1193;125210;-69
2023/01/01 06:03:40;;;;;;;10.00;6.40;;;;;;;13.47;55.05;99355.74;234614;1194;140302;-72
2023/01/01 06:15:41;;;;;;;11.00;6.40;;;;;;;13.44;54.39;99391.26;234711;1195;139800;-73
2023/01/01 06:21:51;;;;;;;;;;;;;;;;;;;;;
2023/01/01 06:27:24;;;;;;;;;;;;;;;;;;;;;
2023/01/01 06:34:07;;;;;;;9.20;6.70;;;;;;;13.38;54.39;99424.86;234682;1195;139618;-68
2023/01/01 06:39:22;;;;;;;;;;;;;;;;;;;;;
2023/01/01 06:44:43;;;;;;;11.30;7.30;;;;;;;13.23;54.73;99448.98;234659;1197;141054;-70
2023/01/01 06:49:57;;;;;;;12.20;7.20;;;;;;;13.16;54.70;99452.27;234697;1193;138763;-75
2023/01/01 06:56:41;;;;;;;13.10;8.40;;;;;;;13.11;55.03;99450.30;234815;1194;140252;-71
2023/01/01 07:01:54;;;;;;;11.40;7.80;;;;;;;12.99;55.14;99455.69;234739;1195;139280;-73
2023/01/01 07:07:29;;;;;;;12.30;8.00;;;;;;;12.95;55.37;99462.20;234689;1193;139829;-73
2023/01/01 07:13:13;;;;;;;;;;;;;;;;;;;;;
2023/01/01 07:18:47;;;;;;;11.70;7.80;;;;;;;12.91;55.59;99485.09;234636;1194;140417;-70
2023/01/01 07:24:17;;;;;;;13.70;8.90;;;;;;;12.89;55.63;99488.06;234745;1195;138507;-70
2023/01/01 07:29:50;;;;;;;;;;;;;;;;;;;;;
2023/01/01 07:35:00;;;;;;;14.90;9.90;;;;;;;12.77;55.83;99505.58;234710;1195;140324;-67
2023/01/01 07:41:03;;;;;;;15.60;9.00;;;;;;;12.79;55.88;99509.34;234737;1198;139257;-68
2023/01/01 07:46:36;;;;;;;22.10;15.40;;;;;;;12.74;55.88;99517.00;234468;1193;139902;-68
2023/01/01 07:52:13;;;;;;;15.80;10.70;;;;;;;12.72;56.09;99523.17;234658;1196;139825;-65
2023/01/01 07:57:46;;;;;;;15.90;10.00;;;;;;;12.66;55.87;99541.04;234700;1195;139663;-70
2023/01/01 08:03:39;;;;;;;16.20;10.40;;;;;;;12.51;56.24;99542.63;234689;1194;139206;-70
2023/01/01 08:09:06;;;;;;;16.50;10.80;;;;;;;12.50;56.61;99543.60;234672;1193;139771;-66
2023/01/01 08:14:13;;;;;;;17.40;11.40;;;;;;;12.47;56.78;99540.96;234689;1194;139943;-73
2023/01/01 08:19:51;;;;;;;16.60;10.90;;;;;;;12.57;56.61;99548.16;234810;1196;138994;-68
2023/01/01 08:25:18;;;;;;;15.10;10.40;;;;;;;12.57;57.33;99569.14;234805;1195;139017;-68
2023/01/01 08:37:25;;;;;;;17.30;10.90;;;;;;;12.42;58.11;99568.81;234797;1195;139085;-68
2023/01/01 08:42:48;;;;;;;14.60;9.80;;;;;;;12.44;57.89;99581.70;234727;1195;139128;-76
2023/01/01 08:54:59;;;;;;;;;;;;;;;;;;;;;
2023/01/01 09:00:22;;;;;;;;;;;;;;;;;;;;;
2023/01/01 09:06:22;;;;;;;12.70;8.50;;;;;;;13.13;55.98;99616.23;234634;1194;139584;-72
2023/01/01 09:12:40;;;;;;;11.10;7.80;;;;;;;13.25;55.91;99611.92;234498;1196;139955;-75
2023/01/01 09:17:38;;;;;;;12.20;7.50;;;;;;;13.33;55.55;99616.02;234518;1195;139243;-75
2023/01/01 09:22:47;;;;;;;27.10;17.60;;;;;;;13.39;55.63;99615.10;234651;1195;139507;-76
2023/01/01 09:28:01;;;;;;;13.20;8.30;;;;;;;13.43;55.63;99613.63;234685;1195;139741;-70
2023/01/01 09:33:31;;;;;;;276.00;193.70;;;;;;;13.45;55.64;99617.01;234721;1196;140056;-67
2023/01/01 09:39:01;;;;;;;15.50;10.40;;;;;;;13.48;56.01;99605.07;234687;1195;140224;-67
2023/01/01 09:44:27;;;;;;;13.80;9.30;;;;;;;13.51;55.53;99593.86;234812;1193;139774;-65
2023/01/01 09:49:53;;;;;;;18.00;10.90;;;;;;;13.52;55.14;99583.64;234813;1193;139691;-67
2023/01/01 09:55:10;;;;;;;16.70;10.00;;;;;;;13.54;54.97;99588.14;234810;1195;140332;-66
2023/01/01 10:00:18;;;;;;;17.50;10.50;;;;;;;13.57;55.26;99587.23;234692;1195;141507;-70
2023/01/01 10:06:38;;;;;;;290.30;190.40;;;;;;;13.64;55.15;99585.52;234556;1195;140198;-69
2023/01/01 10:11:57;;;;;;;19.10;12.70;;;;;;;13.77;55.12;99585.52;234500;1196;139482;-70
2023/01/01 10:17:35;;;;;;;85.30;61.50;;;;;;;13.91;54.92;99573.73;234679;1195;140299;-70
2023/01/01 10:23:24;;;;;;;15.40;10.10;;;;;;;14.11;54.73;99549.85;234622;1198;140048;-65
2023/01/01 10:29:27;;;;;;;16.00;10.30;;;;;;;14.31;54.70;99535.81;234589;1195;138801;-78
2023/01/01 10:35:11;;;;;;;15.70;10.10;;;;;;;14.53;54.49;99540.20;233984;1195;139767;-80
2023/01/01 10:41:25;;;;;;;14.10;9.50;;;;;;;14.82;54.06;99554.25;234750;1197;140059;-72
2023/01/01 10:47:35;;;;;;;15.30;9.40;;;;;;;14.98;53.10;99555.64;234746;1194;140279;-74
2023/01/01 10:52:30;;;;;;;14.60;9.70;;;;;;;15.11;53.02;99548.42;234621;1196;139094;-70
2023/01/01 10:57:39;;;;;;;14.00;8.90;;;;;;;15.12;52.71;99539.20;234617;1196;139498;-68
2023/01/01 11:02:43;;;;;;;207.80;136.40;;;;;;;15.13;52.88;99531.43;234649;1198;139756;-72
2023/01/01 11:08:08;;;;;;;;;;;;;;;;;;;;;
2023/01/01 11:13:19;;;;;;;15.40;9.00;;;;;;;15.19;52.08;99523.86;234473;1196;138890;-73
2023/01/01 11:18:48;;;;;;;14.20;8.60;;;;;;;15.23;52.08;99525.67;234661;1197;140146;-73
2023/01/01 11:24:48;;;;;;;12.60;8.40;;;;;;;15.32;52.12;99496.78;234652;1196;140023;-67
2023/01/01 11:30:52;;;;;;;;;;;;;;;;;;;;;
2023/01/01 11:36:46;;;;;;;;;;;;;;;;;;;;;
2023/01/01 11:42:46;;;;;;;23.80;16.10;;;;;;;15.68;51.06;99496.48;234631;1195;140399;-76
2023/01/01 11:47:59;;;;;;;11.90;8.10;;;;;;;15.74;50.44;99500.99;234608;1199;140166;-68
2023/01/01 11:53:51;;;;;;;13.60;7.50;;;;;;;15.79;50.35;99493.63;234724;1195;139606;-69
2023/01/01 11:59:18;;;;;;;14.20;7.60;;;;;;;15.86;50.31;99479.34;234710;1196;140126;-75
2023/01/01 12:04:51;;;;;;;11.80;7.80;;;;;;;15.94;50.24;99485.73;234612;1193;139541;-72
2023/01/01 12:10:26;;;;;;;43.40;29.70;;;;;;;16.02;50.02;99485.81;234655;1195;139443;-67
2023/01/01 12:16:29;;;;;;;22.10;10.10;;;;;;;16.09;50.23;99495.23;234639;1193;140359;-67
2023/01/01 12:21:53;;;;;;;19.50;15.50;;;;;;;16.19;49.85;99494.49;234632;1193;140625;-73
2023/01/01 12:27:27;;;;;;;35.00;23.50;;;;;;;16.27;50.07;99486.02;234857;1199;139377;-76
2023/01/01 12:33:29;;;;;;;17.10;8.50;;;;;;;16.35;49.77;99489.88;234690;1198;139373;-69
2023/01/01 12:39:45;;;;;;;18.40;8.40;;;;;;;16.38;49.47;99484.81;234703;1197;139223;-69
2023/01/01 12:45:11;;;;;;;;;;;;;;;16.44;49.38;99491.98;234719;1195;139022;-77
2023/01/01 12:50:45;;;;;;;11.50;7.20;;;;;;;16.55;49.25;99499.34;234830;1193;125475;-70
2023/01/01 12:56:20;;;;;;;12.20;7.10;;;;;;;16.65;48.60;99500.55;234797;1193;138969;-70
2023/01/01 13:01:35;;;;;;;12.20;7.30;;;;;;;16.72;48.62;99492.82;234904;1193;138709;-70
2023/01/01 13:06:49;;;;;;;254.60;182.10;;;;;;;16.81;48.85;99489.64;234673;1193;139291;-73
2023/01/01 13:12:31;;;;;;;;;;;;;;;;;;;;;
2023/01/01 13:17:35;;;;;;;14.40;7.50;;;;;;;16.73;48.84;99480.88;234792;1196;140352;-70
2023/01/01 13:22:43;;;;;;;14.60;7.50;;;;;;;16.76;48.55;99474.09;234782;1196;140546;-77
2023/01/01 13:27:55;;;;;;;11.20;6.60;;;;;;;16.74;48.78;99480.86;234734;1196;139132;-70
2023/01/01 13:33:56;;;;;;;14.70;7.30;;;;;;;16.73;48.40;99500.61;234679;1196;139356;-73
2023/01/01 13:38:55;;;;;;;13.80;6.40;;;;;;;16.72;47.98;99505.38;234713;1196;139924;-71
2023/01/01 13:44:04;;;;;;;12.20;6.60;;;;;;;16.67;48.26;99515.76;234615;1197;138674;-68
2023/01/01 13:50:22;;;;;;;;;;;;;;;;;;;;;
2023/01/01 13:55:49;;;;;;;11.60;6.60;;;;;;;16.68;48.17;99538.13;234528;1196;140988;-69
2023/01/01 14:01:13;;;;;;;;;;;;;;;16.66;48.08;99547.99;234728;1197;139282;-73
2023/01/01 14:06:35;;;;;;;10.60;6.40;;;;;;;16.60;48.20;99544.88;234852;1196;125200;-69
2023/01/01 14:11:41;;;;;;;10.50;6.50;;;;;;;16.52;48.43;99549.38;234681;1195;139478;-72
2023/01/01 14:17:05;;;;;;;10.70;7.00;;;;;;;16.46;48.48;99545.80;234666;1196;139790;-71
2023/01/01 14:23:14;;;;;;;13.20;6.30;;;;;;;16.37;48.71;99542.54;234653;1199;139050;-71
2023/01/01 14:28:34;;;;;;;12.60;6.90;;;;;;;16.28;48.78;99542.13;234660;1194;138904;-74
2023/01/01 14:33:41;;;;;;;11.00;6.80;;;;;;;16.22;49.04;99545.88;234780;1195;139005;-69
2023/01/01 14:38:48;;;;;;;10.80;6.30;;;;;;;16.19;48.97;99555.58;234707;1196;141560;-71
2023/01/01 14:44:19;;;;;;;12.70;5.90;;;;;;;16.16;49.13;99553.33;234737;1196;140671;-70
2023/01/01 14:49:41;;;;;;;10.00;6.20;;;;;;;16.09;49.31;99561.00;234748;1194;139666;-71
2023/01/01 14:55:33;;;;;;;41.40;31.90;;;;;;;16.06;49.60;99569.08;234769;1195;139556;-69
2023/01/01 15:01:52;;;;;;;14.60;6.60;;;;;;;16.05;49.76;99578.27;234746;1196;140155;-71
2023/01/01 15:07:20;;;;;;;10.80;7.10;;;;;;;16.00;49.46;99582.22;234671;1195;138914;-70
2023/01/01 15:13:08;;;;;;;;;;;;;;;15.95;49.70;99590.88;234656;1194;138920;-71
2023/01/01 15:18:04;;;;;;;;;;;;;;;;;;;;;
2023/01/01 15:28:17;;;;;;;18.30;10.20;;;;;;;15.79;50.23;99597.77;232833;1209;646719;-70
2023/01/01 15:34:29;;;;;;;15.20;8.30;;;;;;;15.69;50.28;99612.30;234441;1200;138828;-69
2023/01/01 15:40:40;;;;;;;14.10;7.90;;;;;;;15.62;50.63;99618.51;235146;1192;138188;-70
2023/01/01 15:46:18;;;;;;;14.20;7.20;;;;;;;15.57;50.68;99617.95;234859;1195;139653;-72
2023/01/01 15:51:34;;;;;;;;;;;;;;;15.51;50.92;99622.56;234844;1197;139166;-71
2023/01/01 15:56:52;;;;;;;15.60;9.30;;;;;;;15.44;51.06;99632.17;234841;1195;126109;-71
2023/01/01 16:03:19;;;;;;;;;;;;;;;;;;;;;
2023/01/01 16:08:16;;;;;;;14.00;9.00;;;;;;;15.24;51.51;99639.88;235379;1192;140435;-69
2023/01/01 16:13:42;;;;;;;17.60;9.40;;;;;;;15.19;51.71;99635.80;235456;1193;138595;-69
2023/01/01 16:19:24;;;;;;;40.20;27.00;;;;;;;15.12;51.87;99638.41;235097;1193;139659;-70
2023/01/01 16:24:53;;;;;;;17.90;10.30;;;;;;;15.03;52.14;99647.43;235102;1192;139431;-71
2023/01/01 16:30:28;;;;;;;21.90;11.30;;;;;;;14.72;52.12;99653.05;235306;1195;138941;-71
2023/01/01 16:36:27;;;;;;;136.40;92.50;;;;;;;14.39;53.20;99660.42;235132;1193;139677;-69
2023/01/01 16:42:04;;;;;;;21.60;11.60;;;;;;;14.40;53.64;99657.83;235136;1192;139136;-68
2023/01/01 16:47:22;;;;;;;17.50;10.50;;;;;;;14.41;53.78;99664.70;235390;1191;138342;-69
2023/01/01 16:52:31;;;;;;;17.90;11.10;;;;;;;14.39;53.75;99676.64;235349;1193;139012;-68
2023/01/01 16:57:59;;;;;;;20.60;11.50;;;;;;;14.39;54.01;99681.51;235123;1193;139141;-71
2023/01/01 17:03:40;;;;;;;85.90;59.50;;;;;;;14.37;54.26;99679.82;235136;1192;139210;-71
2023/01/01 17:08:49;;;;;;;15.30;10.50;;;;;;;14.35;54.17;99670.86;235221;1191;139170;-68
2023/01/01 17:14:25;;;;;;;18.10;11.20;;;;;;;14.19;54.18;99663.91;235186;1193;139302;-68
2023/01/01 17:19:52;;;;;;;129.50;85.70;;;;;;;14.04;54.53;99660.77;235344;1191;138795;-69
2023/01/01 17:25:03;;;;;;;18.00;10.90;;;;;;;14.06;54.96;99653.17;235213;1193;138887;-68
2023/01/01 17:31:28;;;;;;;19.80;11.40;;;;;;;14.05;54.55;99654.17;234984;1190;138726;-66
2023/01/01 17:37:01;;;;;;;50.20;31.80;;;;;;;14.01;55.01;99662.95;234786;1193;138785;-68
2023/01/01 17:42:34;;;;;;;128.00;94.80;;;;;;;13.97;55.02;99658.60;234152;1189;138604;-70
2023/01/01 17:47:48;;;;;;;39.70;25.00;;;;;;;13.95;55.13;99650.33;233955;1191;139242;-69
2023/01/01 17:53:11;;;;;;;21.80;11.80;;;;;;;13.90;55.44;99656.91;234863;1195;138949;-68
2023/01/01 17:58:50;;;;;;;136.80;85.70;;;;;;;13.88;55.62;99657.73;234803;1196;139558;-69
2023/01/01 18:04:40;;;;;;;21.50;13.70;;;;;;;13.90;55.62;99668.15;234891;1193;139106;-70
2023/01/01 18:10:05;;;;;;;;;;;;;;;;;;;;;
2023/01/01 18:15:42;;;;;;;;;;;;;;;;;;;;;
2023/01/01 18:21:46;;;;;;;23.50;15.60;;;;;;;13.79;55.69;99679.06;234922;1195;139615;-71
2023/01/01 18:27:10;;;;;;;24.30;13.60;;;;;;;13.73;55.86;99689.91;234886;1196;139761;-71
2023/01/01 18:32:23;;;;;;;23.00;14.60;;;;;;;13.70;55.92;99691.02;234935;1196;139409;-72
2023/01/01 18:38:08;;;;;;;24.50;14.30;;;;;;;13.65;56.05;99687.79;234728;1194;139404;-69
2023/01/01 18:43:44;;;;;;;41.80;22.90;;;;;;;13.65;56.01;99678.15;234608;1196;139152;-69
2023/01/01 18:48:58;;;;;;;60.60;43.10;;;;;;;13.62;56.18;99673.22;234500;1195;140355;-70
2023/01/01 18:54:28;;;;;;;27.30;17.70;;;;;;;13.63;56.36;99676.65;234516;1195;139396;-69
2023/01/01 19:00:02;;;;;;;26.40;15.30;;;;;;;13.57;55.93;99681.85;234654;1196;139358;-66
2023/01/01 19:05:23;;;;;;;25.50;15.70;;;;;;;13.41;56.08;99688.41;234475;1195;140525;-70
2023/01/01 19:10:39;;;;;;;26.20;16.40;;;;;;;13.35;56.20;99694.84;234568;1196;139123;-70
2023/01/01 19:16:35;;;;;;;28.70;17.00;;;;;;;13.38;56.37;99700.75;234776;1196;139078;-70
2023/01/01 19:21:55;;;;;;;26.70;17.20;;;;;;;13.38;56.32;99700.02;234835;1193;139328;-72
2023/01/01 19:27:33;;;;;;;195.50;135.50;;;;;;;13.35;56.26;99700.40;234881;1193;139191;-71
2023/01/01 19:32:44;;;;;;;33.40;23.10;;;;;;;13.37;56.20;99704.55;234742;1196;139132;-70
2023/01/01 19:38:00;;;;;;;25.00;16.60;;;;;;;13.24;56.09;99710.88;235025;1196;139536;-71
2023/01/01 19:43:25;;;;;;;25.90;15.70;;;;;;;13.02;56.49;99719.65;234867;1193;139195;-70
2023/01/01 19:48:40;;;;;;;26.80;16.50;;;;;;;12.98;56.77;99736.46;234901;1195;139591;-71
2023/01/01 19:54:09;;;;;;;24.50;16.70;;;;;;;12.83;56.36;99736.34;234876;1196;138672;-70
2023/01/01 19:59:36;;;;;;;26.20;16.90;;;;;;;12.46;56.49;99740.13;234834;1196;138894;-70
2023/01/01 20:05:27;;;;;;;29.90;17.30;;;;;;;12.13;57.11;99748.46;234928;1193;139007;-70
2023/01/01 20:11:21;;;;;;;27.90;16.10;;;;;;;11.82;57.19;99749.31;234842;1195;139324;-69
2023/01/01 20:16:56;;;;;;;;;;;;;;;;;;;;;
2023/01/01 20:22:10;;;;;;;25.50;15.70;;;;;;;11.27;58.39;99757.41;234876;1195;139128;-70
2023/01/01 20:27:43;;;;;;;;;;;;;;;;;;;;;
2023/01/01 20:33:37;;;;;;;22.50;14.90;;;;;;;10.95;59.26;99768.37;234974;1193;138951;-71
2023/01/01 20:39:11;;;;;;;28.20;15.90;;;;;;;10.76;59.98;99764.02;234867;1193;139741;-71
2023/01/01 20:46:07;;;;;;;25.20;15.90;;;;;;;10.58;60.33;99760.48;234899;1196;139177;-71
2023/01/01 20:50:52;;;;;;;26.70;18.20;;;;;;;10.39;60.52;99764.10;234697;1195;139314;-70
2023/01/01 20:56:30;;;;;;;;;;;;;;;;;;;;;
2023/01/01 21:02:30;;;;;;;;;;;;;;;;;;;;;
2023/01/01 21:07:39;;;;;;;28.30;16.90;;;;;;;10.11;61.30;99755.67;234771;1193;139421;-69
2023/01/01 21:13:27;;;;;;;;;;;;;;;;;;;;;
2023/01/01 21:19:46;;;;;;;;;;;;;;;;;;;;;
2023/01/01 21:25:36;;;;;;;;;;;;;;;;;;;;;
2023/01/01 21:31:20;;;;;;;28.80;17.50;;;;;;;9.76;62.91;99777.71;235021;1193;139178;-69
2023/01/01 21:37:45;;;;;;;33.90;20.10;;;;;;;9.80;62.80;99775.77;234963;1193;139727;-71
2023/01/01 21:43:28;;;;;;;27.70;18.30;;;;;;;9.78;62.41;99769.81;234858;1193;139454;-69
2023/01/01 21:49:58;;;;;;;33.70;19.00;;;;;;;9.77;62.68;99766.88;234790;1195;139057;-71
2023/01/01 22:02:38;;;;;;;32.10;19.80;;;;;;;9.61;62.90;99767.77;234799;1195;139559;-70
2023/01/01 22:08:33;;;;;;;29.90;19.10;;;;;;;9.57;63.45;99767.81;235029;1196;139096;-69
2023/01/01 22:14:16;;;;;;;33.70;19.20;;;;;;;9.53;63.55;99776.34;234850;1193;139934;-69
2023/01/01 22:20:32;;;;;;;31.00;20.30;;;;;;;9.42;63.47;99774.34;235093;1195;139817;-69
2023/01/01 22:26:08;;;;;;;;;;;;;;;;;;;;;
2023/01/01 22:31:35;;;;;;;34.50;22.30;;;;;;;9.28;63.84;99777.83;234635;1196;138988;-71
2023/01/01 22:37:36;;;;;;;;;;;;;;;;;;;;;
2023/01/01 22:43:52;;;;;;;35.70;22.80;;;;;;;9.08;64.33;99776.21;234815;1194;139343;-68
2023/01/01 22:49:57;;;;;;;36.50;24.10;;;;;;;9.05;64.56;99775.97;234675;1198;138929;-71
2023/01/01 22:55:04;;;;;;;40.30;24.10;;;;;;;9.02;65.03;99772.25;234886;1193;140103;-70
2023/01/01 23:07:47;;;;;;;;;;;;;;;;;;;;;
2023/01/01 23:19:58;;;;;;;;;;;;;;;;;;;;;
2023/01/01 23:26:19;;;;;;;;;;;;;;;;;;;;;
2023/01/01 23:31:54;;;;;;;;;;;;;;;;;;;;;
2023/01/01 23:37:43;;;;;;;50.20;33.30;;;;;;;9.60;65.91;99765.01;234807;1196;125517;-70
2023/01/01 23:44:18;;;;;;;55.00;34.50;;;;;;;9.55;66.35;99760.27;234835;1195;138687;-67
2023/01/01 23:50:44;;;;;;;;;;;;;;;;;;;;;
2023/01/01 23:56:35;;;;;;;53.80;35.10;;;;;;;9.72;66.29;99753.45;234788;1196;138936;-67
